createdAt,value
2023-09-25T00:00:43.338Z,73.34
2023-09-25T00:01:43.034Z,72.83
2023-09-25T00:02:43.260Z,73.72
2023-09-25T00:03:43.391Z,73.85
2023-09-25T00:04:43.100Z,74.38
2023-09-25T00:05:43.217Z,74.51
2023-09-25T00:06:43.090Z,74.51
2023-09-25T00:07:42.957Z,75.04
2023-09-25T00:08:43.266Z,75.51
2023-09-25T00:09:42.950Z,75.17
2023-09-25T00:10:42.922Z,76.06
2023-09-25T00:11:43.275Z,75.85
2023-09-25T00:12:42.944Z,76.40
2023-09-25T00:13:42.898Z,76.20
2023-09-25T00:14:43.254Z,76.06
2023-09-25T00:15:42.969Z,76.33
2023-09-25T00:16:42.888Z,76.47
2023-09-25T00:17:43.017Z,76.26
2023-09-25T00:18:42.949Z,76.26
2023-09-25T00:19:42.827Z,76.61
2023-09-25T00:20:42.814Z,76.82
2023-09-25T00:21:42.896Z,76.47
2023-09-25T00:22:42.823Z,75.99
2023-09-25T00:23:43.218Z,76.26
2023-09-25T00:24:42.772Z,76.06
2023-09-25T00:25:42.776Z,75.99
2023-09-25T00:26:42.877Z,76.33
2023-09-25T00:27:42.831Z,76.40
2023-09-25T00:28:42.704Z,75.99
2023-09-25T00:29:42.715Z,76.40
2023-09-25T00:30:42.745Z,75.71
2023-09-25T00:31:42.772Z,75.38
2023-09-25T00:32:42.764Z,75.17
2023-09-25T00:33:42.752Z,74.71
2023-09-25T00:34:42.849Z,74.71
2023-09-25T00:35:42.833Z,73.92
2023-09-25T00:36:42.803Z,74.05
2023-09-25T00:37:42.820Z,73.92
2023-09-25T00:38:42.967Z,73.98
2023-09-25T00:39:42.944Z,73.79
2023-09-25T00:40:42.574Z,73.85
2023-09-25T00:41:42.623Z,73.66
2023-09-25T00:42:42.950Z,74.11
2023-09-25T00:43:42.551Z,73.98
2023-09-25T00:44:42.590Z,73.98
2023-09-25T00:45:42.585Z,74.24
2023-09-25T00:46:42.542Z,74.64
2023-09-25T00:47:42.908Z,74.97
2023-09-25T00:48:42.538Z,74.57
2023-09-25T00:49:43.150Z,74.90
2023-09-25T00:50:42.816Z,74.84
2023-09-25T00:51:42.481Z,75.31
2023-09-25T00:52:42.879Z,74.51
2023-09-25T00:53:42.777Z,73.72
2023-09-25T00:54:43.199Z,73.21
2023-09-25T00:55:42.876Z,72.70
2023-09-25T00:56:43.289Z,71.59
2023-09-25T00:57:43.350Z,71.10
2023-09-25T00:58:42.391Z,70.15
2023-09-25T00:59:42.656Z,69.23
2023-09-25T01:00:42.935Z,68.89
2023-09-25T01:01:42.645Z,67.78
2023-09-25T01:02:42.455Z,67.08
2023-09-25T01:03:42.348Z,66.23
2023-09-25T01:04:42.316Z,65.92
2023-09-25T01:05:42.323Z,65.20
2023-09-25T01:06:42.303Z,64.11
2023-09-25T01:07:42.284Z,63.34
2023-09-25T01:08:42.337Z,62.53
2023-09-25T01:09:42.267Z,61.39
2023-09-25T01:10:42.253Z,60.60
2023-09-25T01:11:42.226Z,59.82
2023-09-25T01:12:42.273Z,59.44
2023-09-25T01:13:42.189Z,58.94
2023-09-25T01:14:42.221Z,58.17
2023-09-25T01:15:42.386Z,57.53
2023-09-25T01:16:42.238Z,56.56
2023-09-25T01:17:42.162Z,55.66
2023-09-25T01:18:42.343Z,54.93
2023-09-25T01:19:42.130Z,54.15
2023-09-25T01:20:42.142Z,53.33
2023-09-25T01:21:42.170Z,52.50
2023-09-25T01:22:42.174Z,51.53
2023-09-25T01:23:42.082Z,50.85
2023-09-25T01:24:42.291Z,49.97
2023-09-25T01:25:42.070Z,49.15
2023-09-25T01:26:42.068Z,48.22
2023-09-25T01:27:42.084Z,47.17
2023-09-25T01:28:42.048Z,45.98
2023-09-25T01:29:42.033Z,45.53
2023-09-25T01:30:42.363Z,44.57
2023-09-25T01:31:41.991Z,43.74
2023-09-25T01:32:42.016Z,43.33
2023-09-25T01:33:42.101Z,42.54
2023-09-25T01:34:42.360Z,42.20
2023-09-25T01:35:41.965Z,41.74
2023-09-25T01:36:42.133Z,41.13
2023-09-25T01:37:41.918Z,40.61
2023-09-25T01:38:42.341Z,40.11
2023-09-25T01:39:42.371Z,39.84
2023-09-25T01:40:41.917Z,39.73
2023-09-25T01:41:41.862Z,39.14
2023-09-25T01:42:42.385Z,38.99
2023-09-25T01:43:42.329Z,38.67
2023-09-25T01:44:41.853Z,38.18
2023-09-25T01:45:41.885Z,37.77
2023-09-25T01:46:42.370Z,37.43
2023-09-25T01:47:41.825Z,37.23
2023-09-25T01:48:42.199Z,36.97
2023-09-25T01:49:41.841Z,36.15
2023-09-25T01:50:41.808Z,35.81
2023-09-25T01:51:42.159Z,35.42
2023-09-25T01:52:41.791Z,35.06
2023-09-25T01:53:41.756Z,34.80
2023-09-25T01:54:42.402Z,34.43
2023-09-25T01:55:41.740Z,34.15
2023-09-25T01:56:41.723Z,33.79
2023-09-25T01:57:41.878Z,33.58
2023-09-25T01:58:41.702Z,33.28
2023-09-25T01:59:41.668Z,33.00
2023-09-25T02:00:41.737Z,32.82
2023-09-25T02:01:41.671Z,32.51
2023-09-25T02:02:41.936Z,32.39
2023-09-25T02:03:41.939Z,32.09
2023-09-25T02:04:42.171Z,31.95
2023-09-25T02:05:41.783Z,31.66
2023-09-25T02:06:41.835Z,31.44
2023-09-25T02:07:42.354Z,31.35
2023-09-25T02:08:41.586Z,31.19
2023-09-25T02:09:41.589Z,31.05
2023-09-25T02:10:41.861Z,30.73
2023-09-25T02:11:41.530Z,30.80
2023-09-25T02:12:41.601Z,30.73
2023-09-25T02:13:41.608Z,30.40
2023-09-25T02:14:41.511Z,30.33
2023-09-25T02:15:41.720Z,30.35
2023-09-25T02:16:41.584Z,30.12
2023-09-25T02:17:41.496Z,30.16
2023-09-25T02:18:41.777Z,30.03
2023-09-25T02:19:41.443Z,30.03
2023-09-25T02:20:41.510Z,29.94
2023-09-25T02:21:41.430Z,29.82
2023-09-25T02:22:41.842Z,29.77
2023-09-25T02:23:41.394Z,29.82
2023-09-25T02:24:41.434Z,29.61
2023-09-25T02:25:41.390Z,29.71
2023-09-25T02:26:41.379Z,29.63
2023-09-25T02:27:41.400Z,29.67
2023-09-25T02:28:41.387Z,29.55
2023-09-25T02:29:41.330Z,29.48
2023-09-25T02:30:41.403Z,29.42
2023-09-25T02:31:41.374Z,29.32
2023-09-25T02:32:41.362Z,29.18
2023-09-25T02:33:41.331Z,29.14
2023-09-25T02:34:41.795Z,29.00
2023-09-25T02:35:41.269Z,28.80
2023-09-25T02:36:41.313Z,28.76
2023-09-25T02:37:41.243Z,28.62
2023-09-25T02:38:41.299Z,28.45
2023-09-25T02:39:41.231Z,28.39
2023-09-25T02:40:41.257Z,28.27
2023-09-25T02:41:41.198Z,28.22
2023-09-25T02:42:41.222Z,28.18
2023-09-25T02:43:41.191Z,27.92
2023-09-25T02:44:41.240Z,27.92
2023-09-25T02:45:41.230Z,27.79
2023-09-25T02:46:41.281Z,27.57
2023-09-25T02:47:41.128Z,27.44
2023-09-25T02:48:41.198Z,27.35
2023-09-25T02:49:41.299Z,27.39
2023-09-25T02:50:41.115Z,27.25
2023-09-25T02:51:41.153Z,27.11
2023-09-25T02:52:41.334Z,26.95
2023-09-25T02:53:41.054Z,26.97
2023-09-25T02:54:41.123Z,26.82
2023-09-25T02:55:41.401Z,26.63
2023-09-25T02:56:41.052Z,26.53
2023-09-25T02:57:41.165Z,26.31
2023-09-25T02:58:41.521Z,26.18
2023-09-25T02:59:41.399Z,26.00
2023-09-25T03:00:41.025Z,25.80
2023-09-25T03:01:40.996Z,25.64
2023-09-25T03:02:41.150Z,25.58
2023-09-25T03:03:40.960Z,25.47
2023-09-25T03:04:41.156Z,25.38
2023-09-25T03:05:40.977Z,25.22
2023-09-25T03:06:40.991Z,25.22
2023-09-25T03:07:40.910Z,25.24
2023-09-25T03:08:40.916Z,25.22
2023-09-25T03:09:40.935Z,25.21
2023-09-25T03:10:41.186Z,25.27
2023-09-25T03:11:40.862Z,25.25
2023-09-25T03:12:40.856Z,25.36
2023-09-25T03:13:40.839Z,25.38
2023-09-25T03:14:41.303Z,25.48
2023-09-25T03:15:40.886Z,25.53
2023-09-25T03:16:40.820Z,25.51
2023-09-25T03:17:40.803Z,25.59
2023-09-25T03:18:40.825Z,25.59
2023-09-25T03:19:40.762Z,25.59
2023-09-25T03:20:40.767Z,25.64
2023-09-25T03:21:40.779Z,25.55
2023-09-25T03:22:41.499Z,25.48
2023-09-25T03:23:40.707Z,25.53
2023-09-25T03:24:41.543Z,25.45
2023-09-25T03:25:40.719Z,25.34
2023-09-25T03:26:40.690Z,25.25
2023-09-25T03:27:40.828Z,25.21
2023-09-25T03:28:40.690Z,25.09
2023-09-25T03:29:40.652Z,24.98
2023-09-25T03:30:41.481Z,24.91
2023-09-25T03:31:40.714Z,24.88
2023-09-25T03:32:41.135Z,24.87
2023-09-25T03:33:40.638Z,24.76
2023-09-25T03:34:41.147Z,24.73
2023-09-25T03:35:40.575Z,24.72
2023-09-25T03:36:40.662Z,24.66
2023-09-25T03:37:40.572Z,24.68
2023-09-25T03:38:40.899Z,24.66
2023-09-25T03:39:40.716Z,24.65
2023-09-25T03:40:41.450Z,24.60
2023-09-25T03:41:40.514Z,24.60
2023-09-25T03:42:40.633Z,24.63
2023-09-25T03:43:40.487Z,24.62
2023-09-25T03:44:40.500Z,24.72
2023-09-25T03:45:40.510Z,24.70
2023-09-25T03:46:40.874Z,24.69
2023-09-25T03:47:40.495Z,24.70
2023-09-25T03:48:40.526Z,24.69
2023-09-25T03:49:40.821Z,24.65
2023-09-25T03:50:40.459Z,24.62
2023-09-25T03:51:40.517Z,24.66
2023-09-25T03:52:40.413Z,24.79
2023-09-25T03:53:40.398Z,24.76
2023-09-25T03:54:40.521Z,24.81
2023-09-25T03:55:40.338Z,24.91
2023-09-25T03:56:40.471Z,24.95
2023-09-25T03:57:40.373Z,24.98
2023-09-25T03:58:40.313Z,25.07
2023-09-25T03:59:40.455Z,25.13
2023-09-25T04:00:40.393Z,25.24
2023-09-25T04:01:40.289Z,25.24
2023-09-25T04:02:40.592Z,25.36
2023-09-25T04:03:40.374Z,25.44
2023-09-25T04:04:40.698Z,25.55
2023-09-25T04:05:40.250Z,25.70
2023-09-25T04:06:40.256Z,25.83
2023-09-25T04:07:40.218Z,25.97
2023-09-25T04:08:40.228Z,26.15
2023-09-25T04:09:40.497Z,26.43
2023-09-25T04:10:40.204Z,26.58
2023-09-25T04:11:40.149Z,26.73
2023-09-25T04:12:40.206Z,27.00
2023-09-25T04:13:40.142Z,27.16
2023-09-25T04:14:40.490Z,27.35
2023-09-25T04:15:40.119Z,27.46
2023-09-25T04:16:40.180Z,27.41
2023-09-25T04:17:40.734Z,27.57
2023-09-25T04:18:40.636Z,27.72
2023-09-25T04:19:40.217Z,27.84
2023-09-25T04:20:40.307Z,27.92
2023-09-25T04:21:40.074Z,28.05
2023-09-25T04:22:40.487Z,28.09
2023-09-25T04:23:40.487Z,28.16
2023-09-25T04:24:40.065Z,28.31
2023-09-25T04:25:40.186Z,28.26
2023-09-25T04:26:40.490Z,28.37
2023-09-25T04:27:40.619Z,28.37
2023-09-25T04:28:40.007Z,28.41
2023-09-25T04:29:39.981Z,28.33
2023-09-25T04:30:40.676Z,28.43
2023-09-25T04:31:39.995Z,28.39
2023-09-25T04:32:40.391Z,28.41
2023-09-25T04:33:39.968Z,28.43
2023-09-25T04:34:40.441Z,28.47
2023-09-25T04:35:39.872Z,28.56
2023-09-25T04:36:40.579Z,28.54
2023-09-25T04:37:39.866Z,28.72
2023-09-25T04:38:40.504Z,28.74
2023-09-25T04:39:39.880Z,28.86
2023-09-25T04:40:40.928Z,28.88
2023-09-25T04:41:40.508Z,28.86
2023-09-25T04:42:40.562Z,28.90
2023-09-25T04:43:39.823Z,28.96
2023-09-25T04:44:39.816Z,29.02
2023-09-25T04:45:39.866Z,29.08
2023-09-25T04:46:39.903Z,29.12
2023-09-25T04:47:39.754Z,29.08
2023-09-25T04:48:39.909Z,29.04
2023-09-25T04:49:39.785Z,29.06
2023-09-25T04:50:40.000Z,29.10
2023-09-25T04:51:39.865Z,29.04
2023-09-25T04:52:40.060Z,29.00
2023-09-25T04:53:39.776Z,28.98
2023-09-25T04:54:39.812Z,28.92
2023-09-25T04:55:39.677Z,28.76
2023-09-25T04:56:39.747Z,28.64
2023-09-25T04:57:40.336Z,28.41
2023-09-25T04:58:40.284Z,28.29
2023-09-25T04:59:39.815Z,28.10
2023-09-25T05:00:40.327Z,27.88
2023-09-25T05:01:39.646Z,27.84
2023-09-25T05:02:40.350Z,27.70
2023-09-25T05:03:41.027Z,27.57
2023-09-25T05:04:39.558Z,27.53
2023-09-25T05:05:39.548Z,27.50
2023-09-25T05:06:39.650Z,27.44
2023-09-25T05:07:39.507Z,27.30
2023-09-25T05:08:39.530Z,27.25
2023-09-25T05:09:39.510Z,27.14
2023-09-25T05:10:39.496Z,27.04
2023-09-25T05:11:39.498Z,26.95
2023-09-25T05:12:39.540Z,26.92
2023-09-25T05:13:39.464Z,26.85
2023-09-25T05:14:39.451Z,26.73
2023-09-25T05:15:39.481Z,26.59
2023-09-25T05:16:39.447Z,26.53
2023-09-25T05:17:39.502Z,26.49
2023-09-25T05:18:39.461Z,26.43
2023-09-25T05:19:39.432Z,26.31
2023-09-25T05:20:39.377Z,26.30
2023-09-25T05:21:39.429Z,26.21
2023-09-25T05:22:39.360Z,26.17
2023-09-25T05:23:39.349Z,26.07
2023-09-25T05:24:39.358Z,26.08
2023-09-25T05:25:39.318Z,26.05
2023-09-25T05:26:39.319Z,26.03
2023-09-25T05:27:39.396Z,25.99
2023-09-25T05:28:39.285Z,25.95
2023-09-25T05:29:39.261Z,26.02
2023-09-25T05:30:39.615Z,25.91
2023-09-25T05:31:39.281Z,25.97
2023-09-25T05:32:39.265Z,25.84
2023-09-25T05:33:39.295Z,25.81
2023-09-25T05:34:39.206Z,25.80
2023-09-25T05:35:39.217Z,25.70
2023-09-25T05:36:39.263Z,25.64
2023-09-25T05:37:39.209Z,25.58
2023-09-25T05:38:39.293Z,25.62
2023-09-25T05:39:39.210Z,25.56
2023-09-25T05:40:39.127Z,25.50
2023-09-25T05:41:39.166Z,25.42
2023-09-25T05:42:39.147Z,25.41
2023-09-25T05:43:39.105Z,25.34
2023-09-25T05:44:39.105Z,25.25
2023-09-25T05:45:39.113Z,25.28
2023-09-25T05:46:39.114Z,25.15
2023-09-25T05:47:39.077Z,25.10
2023-09-25T05:48:39.580Z,25.06
2023-09-25T05:49:39.073Z,25.03
2023-09-25T05:50:39.009Z,25.03
2023-09-25T05:51:39.097Z,24.95
2023-09-25T05:52:38.989Z,24.91
2023-09-25T05:53:39.000Z,24.90
2023-09-25T05:54:39.027Z,24.94
2023-09-25T05:55:38.978Z,24.94
2023-09-25T05:56:38.942Z,24.92
2023-09-25T05:57:39.014Z,24.97
2023-09-25T05:58:38.925Z,24.98
2023-09-25T05:59:38.962Z,24.98
2023-09-25T06:00:39.966Z,25.03
2023-09-25T06:01:38.962Z,25.04
2023-09-25T06:02:39.620Z,25.16
2023-09-25T06:03:38.977Z,25.18
2023-09-25T06:04:38.975Z,25.33
2023-09-25T06:05:38.865Z,25.39
2023-09-25T06:06:38.867Z,25.41
2023-09-25T06:07:38.838Z,25.53
2023-09-25T06:08:38.810Z,25.58
2023-09-25T06:09:38.861Z,25.62
2023-09-25T06:10:38.817Z,25.76
2023-09-25T06:11:38.790Z,25.83
2023-09-25T06:12:38.822Z,25.91
2023-09-25T06:13:38.788Z,25.99
2023-09-25T06:14:38.737Z,26.10
2023-09-25T06:15:38.969Z,26.17
2023-09-25T06:16:38.784Z,26.23
2023-09-25T06:17:38.791Z,26.34
2023-09-25T06:18:38.713Z,26.49
2023-09-25T06:19:38.716Z,26.61
2023-09-25T06:20:38.691Z,26.76
2023-09-25T06:21:38.710Z,26.80
2023-09-25T06:22:39.597Z,27.14
2023-09-25T06:23:38.662Z,27.11
2023-09-25T06:24:38.701Z,27.23
2023-09-25T06:25:38.657Z,27.37
2023-09-25T06:26:38.649Z,27.48
2023-09-25T06:27:38.656Z,27.62
2023-09-25T06:28:38.573Z,27.72
2023-09-25T06:29:38.613Z,27.83
2023-09-25T06:30:38.609Z,27.88
2023-09-25T06:31:53.785Z,27.94
2023-09-25T06:32:39.627Z,27.97
2023-09-25T06:33:38.640Z,28.05
2023-09-25T06:34:38.628Z,28.07
2023-09-25T06:35:38.563Z,28.20
2023-09-25T06:36:38.582Z,28.22
2023-09-25T06:37:40.121Z,28.29
2023-09-25T06:38:38.462Z,28.37
2023-09-25T06:39:38.493Z,28.45
2023-09-25T06:40:38.433Z,28.52
2023-09-25T06:41:38.490Z,28.49
2023-09-25T06:42:38.462Z,28.52
2023-09-25T06:43:38.422Z,28.58
2023-09-25T06:44:38.377Z,28.58
2023-09-25T06:45:38.455Z,28.66
2023-09-25T06:46:38.409Z,28.72
2023-09-25T06:47:38.806Z,28.78
2023-09-25T06:48:38.423Z,29.06
2023-09-25T06:49:38.338Z,29.16
2023-09-25T06:50:38.315Z,29.04
2023-09-25T06:51:38.521Z,29.26
2023-09-25T06:52:38.293Z,29.57
2023-09-25T06:53:38.315Z,29.75
2023-09-25T06:54:38.326Z,29.94
2023-09-25T06:55:38.276Z,30.18
2023-09-25T06:56:38.246Z,30.38
2023-09-25T06:57:38.286Z,30.64
2023-09-25T06:58:38.233Z,30.94
2023-09-25T06:59:38.240Z,31.17
2023-09-25T07:00:50.714Z,31.49
2023-09-25T07:01:39.297Z,31.87
2023-09-25T07:02:38.181Z,32.19
2023-09-25T07:03:38.285Z,32.54
2023-09-25T07:04:38.286Z,32.82
2023-09-25T07:05:38.243Z,33.10
2023-09-25T07:06:38.183Z,33.66
2023-09-25T07:07:38.123Z,34.15
2023-09-25T07:08:38.138Z,34.74
2023-09-25T07:09:38.187Z,35.30
2023-09-25T07:10:38.110Z,35.75
2023-09-25T07:11:38.104Z,36.58
2023-09-25T07:12:38.151Z,36.97
2023-09-25T07:13:38.084Z,37.50
2023-09-25T07:14:38.058Z,37.90
2023-09-25T07:15:38.126Z,38.78
2023-09-25T07:16:38.072Z,39.47
2023-09-25T07:17:38.112Z,39.92
2023-09-25T07:18:38.025Z,40.81
2023-09-25T07:19:37.999Z,41.53
2023-09-25T07:20:38.007Z,41.82
2023-09-25T07:21:38.064Z,42.67
2023-09-25T07:22:37.981Z,43.11
2023-09-25T07:23:38.161Z,43.87
2023-09-25T07:24:37.969Z,44.43
2023-09-25T07:25:37.938Z,45.00
2023-09-25T07:26:37.897Z,45.78
2023-09-25T07:27:38.027Z,46.49
2023-09-25T07:28:38.385Z,47.14
2023-09-25T07:29:41.854Z,47.70
2023-09-25T07:30:37.919Z,48.22
2023-09-25T07:31:37.905Z,49.07
2023-09-25T07:32:37.900Z,49.91
2023-09-25T07:33:37.887Z,50.27
2023-09-25T07:34:37.815Z,51.06
2023-09-25T07:35:37.818Z,51.41
2023-09-25T07:36:38.575Z,52.43
2023-09-25T07:37:37.839Z,53.30
2023-09-25T07:38:37.786Z,53.91
2023-09-25T07:39:37.858Z,54.61
2023-09-25T07:40:37.760Z,54.90
2023-09-25T07:41:37.792Z,55.59
2023-09-25T07:42:37.763Z,56.26
2023-09-25T07:43:51.111Z,56.56
2023-09-25T07:44:38.782Z,57.18
2023-09-25T07:45:37.744Z,56.87
2023-09-25T07:46:37.765Z,57.18
2023-09-25T07:47:37.723Z,57.02
2023-09-25T07:48:37.761Z,57.37
2023-09-25T07:49:37.685Z,57.65
2023-09-25T07:50:37.635Z,58.04
2023-09-25T07:51:37.689Z,58.12
2023-09-25T07:52:37.623Z,58.45
2023-09-25T07:53:37.626Z,58.82
2023-09-25T07:54:37.618Z,59.06
2023-09-25T07:55:37.603Z,59.31
2023-09-25T07:56:37.572Z,59.69
2023-09-25T07:57:37.638Z,59.99
2023-09-25T07:58:37.574Z,60.25
2023-09-25T07:59:37.563Z,60.82
2023-09-25T08:00:37.576Z,61.53
2023-09-25T08:01:37.568Z,62.49
2023-09-25T08:02:37.583Z,63.29
2023-09-25T08:03:37.606Z,63.96
2023-09-25T08:04:37.547Z,64.40
2023-09-25T08:05:37.735Z,65.00
2023-09-25T08:06:37.474Z,65.56
2023-09-25T08:07:37.466Z,66.18
2023-09-25T08:08:37.480Z,67.56
2023-09-25T08:09:37.603Z,68.78
2023-09-25T08:10:37.438Z,69.75
2023-09-25T08:11:37.440Z,70.86
2023-09-25T08:12:37.404Z,71.59
2023-09-25T08:13:37.417Z,72.58
2023-09-25T08:14:37.375Z,73.92
2023-09-25T08:15:37.425Z,75.31
2023-09-25T08:16:37.383Z,76.68
2023-09-25T08:17:37.388Z,78.04
2023-09-25T08:18:37.370Z,78.54
2023-09-25T08:19:37.454Z,80.12
2023-09-25T08:20:37.385Z,81.60
2023-09-25T08:21:37.352Z,82.47
2023-09-25T08:22:37.280Z,83.96
2023-09-25T08:23:37.282Z,84.89
2023-09-25T08:24:37.289Z,85.67
2023-09-25T08:25:37.300Z,86.55
2023-09-25T08:26:37.240Z,88.74
2023-09-25T08:27:37.311Z,89.69
2023-09-25T08:28:37.235Z,90.46
2023-09-25T08:29:37.224Z,91.85
2023-09-25T08:30:37.319Z,92.25
2023-09-25T08:31:37.285Z,92.66
2023-09-25T08:32:37.251Z,93.58
2023-09-25T08:33:37.261Z,94.11
2023-09-25T08:34:37.155Z,94.96
2023-09-25T08:35:37.159Z,93.71
2023-09-25T08:36:37.190Z,94.19
2023-09-25T08:37:37.127Z,94.45
2023-09-25T08:38:37.100Z,95.53
2023-09-25T08:39:37.216Z,96.13
2023-09-25T08:40:37.097Z,96.29
2023-09-25T08:41:37.095Z,96.29
2023-09-25T08:42:37.781Z,96.73
2023-09-25T08:43:37.077Z,96.79
2023-09-25T08:44:37.029Z,96.90
2023-09-25T08:45:37.244Z,97.52
2023-09-25T08:46:37.073Z,98.15
2023-09-25T08:47:37.039Z,99.31
2023-09-25T08:48:37.033Z,99.54
2023-09-25T08:49:37.727Z,100.49
2023-09-25T08:50:36.971Z,101.04
2023-09-25T08:51:37.081Z,100.43
2023-09-25T08:52:37.158Z,101.16
2023-09-25T08:53:36.971Z,101.04
2023-09-25T08:54:36.972Z,101.59
2023-09-25T08:55:36.951Z,102.08
2023-09-25T08:56:37.741Z,100.92
2023-09-25T08:57:37.790Z,101.34
2023-09-25T08:58:37.662Z,101.65
2023-09-25T08:59:37.371Z,101.59
2023-09-25T09:00:36.889Z,101.04
2023-09-25T09:01:36.959Z,100.13
2023-09-25T09:02:36.878Z,99.72
2023-09-25T09:03:37.177Z,100.25
2023-09-25T09:04:36.922Z,101.22
2023-09-25T09:05:37.280Z,101.10
2023-09-25T09:06:37.067Z,101.96
2023-09-25T09:07:36.775Z,101.77
2023-09-25T09:08:36.760Z,102.83
2023-09-25T09:09:36.820Z,102.51
2023-09-25T09:10:36.796Z,102.95
2023-09-25T09:11:37.009Z,102.89
2023-09-25T09:12:44.380Z,103.14
2023-09-25T09:13:37.722Z,103.59
2023-09-25T09:14:36.693Z,104.56
2023-09-25T09:15:36.717Z,105.34
2023-09-25T09:16:36.711Z,106.27
2023-09-25T09:17:36.960Z,106.95
2023-09-25T09:18:36.661Z,107.57
2023-09-25T09:19:36.671Z,107.15
2023-09-25T09:20:36.865Z,108.05
2023-09-25T09:21:36.757Z,109.53
2023-09-25T09:22:36.598Z,109.67
2023-09-25T09:23:36.620Z,110.97
2023-09-25T09:24:36.639Z,111.79
2023-09-25T09:25:36.588Z,111.86
2023-09-25T09:26:36.572Z,113.44
2023-09-25T09:27:36.588Z,114.53
2023-09-25T09:28:36.530Z,116.75
2023-09-25T09:29:36.532Z,118.15
2023-09-25T09:30:36.585Z,119.24
2023-09-25T09:31:36.520Z,119.32
2023-09-25T09:32:36.511Z,119.49
2023-09-25T09:33:36.571Z,121.39
2023-09-25T09:34:36.615Z,122.10
2023-09-25T09:35:36.484Z,121.48
2023-09-25T09:36:36.529Z,122.81
2023-09-25T09:37:36.442Z,122.18
2023-09-25T09:38:38.052Z,122.01
2023-09-25T09:39:36.544Z,120.43
2023-09-25T09:40:36.412Z,120.52
2023-09-25T09:41:36.382Z,120.35
2023-09-25T09:42:36.424Z,119.75
2023-09-25T09:43:36.377Z,119.58
2023-09-25T09:44:36.388Z,119.41
2023-09-25T09:45:36.454Z,119.15
2023-09-25T09:46:36.461Z,118.73
2023-09-25T09:47:36.877Z,119.07
2023-09-25T09:48:36.330Z,119.83
2023-09-25T09:49:36.321Z,119.83
2023-09-25T09:50:36.306Z,121.04
2023-09-25T09:51:36.347Z,122.36
2023-09-25T09:52:37.568Z,123.44
2023-09-25T09:53:36.280Z,124.63
2023-09-25T09:54:36.329Z,125.56
2023-09-25T09:55:36.244Z,126.41
2023-09-25T09:56:36.281Z,127.17
2023-09-25T09:57:36.473Z,128.54
2023-09-25T09:58:36.211Z,129.33
2023-09-25T09:59:36.373Z,129.63
2023-09-25T10:00:36.278Z,129.93
2023-09-25T10:01:36.327Z,131.24
2023-09-25T10:02:36.322Z,131.04
2023-09-25T10:03:36.473Z,131.55
2023-09-25T10:04:36.233Z,132.90
2023-09-25T10:05:36.872Z,133.01
2023-09-25T10:06:36.155Z,134.18
2023-09-25T10:07:36.707Z,135.15
2023-09-25T10:08:36.106Z,135.15
2023-09-25T10:09:36.126Z,136.13
2023-09-25T10:10:36.062Z,135.69
2023-09-25T10:11:36.056Z,137.47
2023-09-25T10:12:36.066Z,139.64
2023-09-25T10:13:36.014Z,140.22
2023-09-25T10:14:36.010Z,141.28
2023-09-25T10:15:36.983Z,142.00
2023-09-25T10:16:36.068Z,142.36
2023-09-25T10:17:36.344Z,143.82
2023-09-25T10:18:36.014Z,144.44
2023-09-25T10:19:35.972Z,145.56
2023-09-25T10:20:35.957Z,145.31
2023-09-25T10:21:35.987Z,146.96
2023-09-25T10:22:35.926Z,146.45
2023-09-25T10:23:35.920Z,146.96
2023-09-25T10:24:35.952Z,147.48
2023-09-25T10:25:36.803Z,148.13
2023-09-25T10:26:35.900Z,148.65
2023-09-25T10:27:36.612Z,148.39
2023-09-25T10:28:35.856Z,148.52
2023-09-25T10:29:36.614Z,148.91
2023-09-25T10:30:35.882Z,147.61
2023-09-25T10:31:36.804Z,148.13
2023-09-25T10:32:35.879Z,148.52
2023-09-25T10:33:35.876Z,148.91
2023-09-25T10:34:35.869Z,149.05
2023-09-25T10:35:35.780Z,149.18
2023-09-25T10:36:35.837Z,149.84
2023-09-25T10:37:35.919Z,150.24
2023-09-25T10:38:35.800Z,151.60
2023-09-25T10:39:35.856Z,151.33
2023-09-25T10:40:35.818Z,150.11
2023-09-25T10:41:35.818Z,149.98
2023-09-25T10:42:35.731Z,151.05
2023-09-25T10:43:35.671Z,152.56
2023-09-25T10:44:35.699Z,153.40
2023-09-25T10:45:35.772Z,152.98
2023-09-25T10:46:35.706Z,152.98
2023-09-25T10:47:35.687Z,152.70
2023-09-25T10:48:35.683Z,152.70
2023-09-25T10:49:35.635Z,151.60
2023-09-25T10:50:35.617Z,151.74
2023-09-25T10:51:35.623Z,152.98
2023-09-25T10:52:37.042Z,154.10
2023-09-25T10:53:35.566Z,154.81
2023-09-25T10:54:35.650Z,152.98
2023-09-25T10:55:35.531Z,154.67
2023-09-25T10:56:35.538Z,153.68
2023-09-25T10:57:35.553Z,153.96
2023-09-25T10:58:35.522Z,153.12
2023-09-25T10:59:35.522Z,154.24
2023-09-25T11:00:35.550Z,155.24
2023-09-25T11:01:35.514Z,154.53
2023-09-25T11:02:35.459Z,154.81
2023-09-25T11:03:35.923Z,153.82
2023-09-25T11:04:35.655Z,155.10
2023-09-25T11:05:35.427Z,155.38
2023-09-25T11:06:35.446Z,154.38
2023-09-25T11:07:35.416Z,154.38
2023-09-25T11:08:35.398Z,154.67
2023-09-25T11:09:35.454Z,155.38
2023-09-25T11:10:35.431Z,155.38
2023-09-25T11:11:35.529Z,155.10
2023-09-25T11:12:35.378Z,157.71
2023-09-25T11:13:35.395Z,156.10
2023-09-25T11:14:35.335Z,156.98
2023-09-25T11:15:35.355Z,156.83
2023-09-25T11:16:35.353Z,156.98
2023-09-25T11:17:35.302Z,157.42
2023-09-25T11:18:35.392Z,157.42
2023-09-25T11:19:35.286Z,158.01
2023-09-25T11:20:35.264Z,158.31
2023-09-25T11:21:35.334Z,158.16
2023-09-25T11:22:35.262Z,158.31
2023-09-25T11:23:35.245Z,156.98
2023-09-25T11:24:35.239Z,159.06
2023-09-25T11:25:35.192Z,161.50
2023-09-25T11:26:35.211Z,160.58
2023-09-25T11:27:35.259Z,160.42
2023-09-25T11:28:35.184Z,160.73
2023-09-25T11:29:35.872Z,159.81
2023-09-25T11:30:35.890Z,157.71
2023-09-25T11:31:50.092Z,159.06
2023-09-25T11:32:36.177Z,160.27
2023-09-25T11:33:36.110Z,158.31
2023-09-25T11:34:35.163Z,158.46
2023-09-25T11:35:35.114Z,158.76
2023-09-25T11:36:35.139Z,156.54
2023-09-25T11:37:35.050Z,157.42
2023-09-25T11:38:35.069Z,156.83
2023-09-25T11:39:35.179Z,156.40
2023-09-25T11:40:35.031Z,157.86
2023-09-25T11:41:35.008Z,158.16
2023-09-25T11:42:35.419Z,157.57
2023-09-25T11:43:35.347Z,159.66
2023-09-25T11:44:34.985Z,160.88
2023-09-25T11:45:35.409Z,160.27
2023-09-25T11:46:35.002Z,160.27
2023-09-25T11:47:34.995Z,162.13
2023-09-25T11:48:35.503Z,162.60
2023-09-25T11:49:35.493Z,161.81
2023-09-25T11:50:35.532Z,163.54
2023-09-25T11:51:35.571Z,162.60
2023-09-25T11:52:34.927Z,163.86
2023-09-25T11:53:34.984Z,166.13
2023-09-25T11:54:34.935Z,167.79
2023-09-25T11:55:34.871Z,167.46
2023-09-25T11:56:34.904Z,168.63
2023-09-25T11:57:34.961Z,169.31
2023-09-25T11:58:34.851Z,169.14
2023-09-25T11:59:34.882Z,169.65
2023-09-25T12:00:34.859Z,170.34
2023-09-25T12:01:34.927Z,170.86
2023-09-25T12:02:34.785Z,173.68
2023-09-25T12:03:34.833Z,172.97
2023-09-25T12:04:34.881Z,174.58
2023-09-25T12:05:34.889Z,174.40
2023-09-25T12:06:35.905Z,174.04
2023-09-25T12:07:34.766Z,175.86
2023-09-25T12:08:34.900Z,175.86
2023-09-25T12:09:34.922Z,177.72
2023-09-25T12:10:34.697Z,178.67
2023-09-25T12:11:34.691Z,179.62
2023-09-25T12:12:34.730Z,180.59
2023-09-25T12:13:34.661Z,181.56
2023-09-25T12:14:34.684Z,182.35
2023-09-25T12:15:34.938Z,183.94
2023-09-25T12:16:34.788Z,185.16
2023-09-25T12:17:35.049Z,186.39
2023-09-25T12:18:35.119Z,185.98
2023-09-25T12:19:35.002Z,185.57
2023-09-25T12:20:34.616Z,185.66
2023-09-25T12:21:35.128Z,185.66
2023-09-25T12:22:34.563Z,185.77
2023-09-25T12:23:34.965Z,185.55
2023-09-25T12:24:34.612Z,185.77
2023-09-25T12:25:35.358Z,184.15
2023-09-25T12:26:34.514Z,183.14
2023-09-25T12:27:34.648Z,182.35
2023-09-25T12:28:34.615Z,182.74
2023-09-25T12:29:34.549Z,184.15
2023-09-25T12:30:34.641Z,183.74
2023-09-25T12:31:34.877Z,183.74
2023-09-25T12:32:34.481Z,183.54
2023-09-25T12:33:34.734Z,183.54
2023-09-25T12:34:34.451Z,183.94
2023-09-25T12:35:34.389Z,183.94
2023-09-25T12:36:34.435Z,183.74
2023-09-25T12:37:34.814Z,183.14
2023-09-25T12:38:34.407Z,182.74
2023-09-25T12:39:34.656Z,180.20
2023-09-25T12:40:34.937Z,180.20
2023-09-25T12:41:34.326Z,179.62
2023-09-25T12:42:51.279Z,180.20
2023-09-25T12:43:35.490Z,180.20
2023-09-25T12:44:34.297Z,180.39
2023-09-25T12:45:34.401Z,180.39